Fenelton, PA (16034)

4:13 AM EDT on March 27, 2015 (GMT -0400)
Center Drive Oakland Township | | Change Station
CLOSE
Current Station
Personal Weather Station
Location: Chicora, PA
Elevation: 1158 ft
Nearby Weather Stations

Elev 1158 ft 40.92 °N, 79.84 °W | Updated 12 minutes ago

Overcast
Overcast
33.8 °F
Feels Like 34 °F
N
2.2
Wind Variable Wind from South

Today
High -- | Low -- °F
--% Chance of Precip.
Yesterday
High -- | Low -- °F
Precip. -- in
7:11 AM 7:38 PM
Waxing Crescent, 50% visible
Pressure 29.85 in
Visibility 3.0 miles
Clouds Few 1000 ft
Scattered Clouds 1900 ft
Windchill 34 °F
Dew Point 32 °F
Humidity 95%
Rainfall 0.00 in
Snow Depth Not available.
UV 0 out of 12
Pollen 2.70 out of 12
Air Quality Not available.
Flu Activity Not available.
METAR KBTP 270755Z AUTO 00000KT 3SM FEW010 SCT019 01/M01 A2985 RMK AO1

More Conditions Fewer Conditions

Pressure 29.85 in
Visibility 3.0 miles
Clouds Few 1000 ft
Scattered Clouds 1900 ft
Windchill 34 °F
Dew Point 32 °F
Humidity 95%
Rainfall 0.00 in
Snow Depth Not available.
UV 0 out of 12
Pollen 2.70 out of 12
Air Quality Not available.
Flu Activity Not available.
METAR KBTP 270755Z AUTO 00000KT 3SM FEW010 SCT019 01/M01 A2985 RMK AO1

More Conditions Fewer Conditions

10-Day Weather Forecast

Almanac

Astronomy

Mar. 27, 2015 Rise Set
Actual Time
Civil Twilight
Nautical Twilight
Astronomical Twilight
Moon
Length of Visible Light
Length of Day
Tomorrow will be .
, % of the Moon is Illuminated

Today's Extremes

State Highs State Lows

Community

WunderPhotos

Upload Photos

1,808,705 photos uploaded!

WunderBlogs® & News

Nearby

Air Quality

  Air Quality AQ Index Pollutant
Not available.

Snow Depth

Station Depth Elevation

Earthquake Activity

City Distance Mag. Time & Date
Minimum magnitude displayed is 2.5.

Coastal Water Temperatures

Place Temperature

Stations

Nearby Weather Stations

Station Location Temp. Windchill Dew Point Humidity Wind Precip. Elev Updated Type